sensor_id;sensor_type;location;lat;lon;timestamp;pressure;altitude;pressure_sealevel;temperature;humidity
3122;BME280;1571;52.524;14.104;2023-02-19T00:01:50;100974.38;;;3.95;100.00
3122;BME280;1571;52.524;14.104;2023-02-19T00:04:20;100977.16;;;3.90;100.00
3122;BME280;1571;52.524;14.104;2023-02-19T00:06:49;100977.59;;;3.75;100.00
3122;BME280;1571;52.524;14.104;2023-02-19T00:09:18;100987.88;;;3.83;100.00
3122;BME280;1571;52.524;14.104;2023-02-19T00:11:47;100984.47;;;4.07;100.00
3122;BME280;1571;52.524;14.104;2023-02-19T00:14:18;100975.59;;;4.11;100.00
3122;BME280;1571;52.524;14.104;2023-02-19T00:16:48;100981.63;;;3.87;100.00
3122;BME280;1571;52.524;14.104;2023-02-19T00:19:18;100978.56;;;4.01;100.00
3122;BME280;1571;52.524;14.104;2023-02-19T00:21:47;100972.78;;;3.89;100.00
3122;BME280;1571;52.524;14.104;2023-02-19T00:24:20;100979.53;;;3.70;100.00
3122;BME280;1571;52.524;14.104;2023-02-19T00:26:49;100975.63;;;3.83;100.00
3122;BME280;1571;52.524;14.104;2023-02-19T00:29:19;100972.75;;;3.91;100.00
3122;BME280;1571;52.524;14.104;2023-02-19T00:31:49;100982.09;;;3.71;100.00
3122;BME280;1571;52.524;14.104;2023-02-19T00:34:18;100987.22;;;3.76;100.00
3122;BME280;1571;52.524;14.104;2023-02-19T00:36:46;100986.19;;;3.80;100.00
3122;BME280;1571;52.524;14.104;2023-02-19T00:39:15;100974.38;;;3.95;100.00
3122;BME280;1571;52.524;14.104;2023-02-19T00:41:44;100951.91;;;4.13;100.00
3122;BME280;1571;52.524;14.104;2023-02-19T00:44:13;100963.00;;;3.94;100.00
3122;BME280;1571;52.524;14.104;2023-02-19T00:46:43;100954.53;;;4.13;100.00
3122;BME280;1571;52.524;14.104;2023-02-19T00:49:16;100957.50;;;4.02;100.00
3122;BME280;1571;52.524;14.104;2023-02-19T00:51:45;100953.91;;;4.05;100.00
3122;BME280;1571;52.524;14.104;2023-02-19T00:54:14;100940.06;;;4.00;100.00
3122;BME280;1571;52.524;14.104;2023-02-19T00:56:42;100941.59;;;4.07;100.00
3122;BME280;1571;52.524;14.104;2023-02-19T00:59:11;100946.97;;;4.04;100.00
3122;BME280;1571;52.524;14.104;2023-02-19T01:01:39;100943.69;;;3.95;100.00
3122;BME280;1571;52.524;14.104;2023-02-19T01:04:08;100941.41;;;4.13;100.00
3122;BME280;1571;52.524;14.104;2023-02-19T01:06:37;100956.31;;;3.84;100.00
3122;BME280;1571;52.524;14.104;2023-02-19T01:09:05;100943.50;;;4.02;100.00
3122;BME280;1571;52.524;14.104;2023-02-19T01:11:34;100954.59;;;3.83;100.00
3122;BME280;1571;52.524;14.104;2023-02-19T01:14:03;100952.78;;;3.85;100.00
3122;BME280;1571;52.524;14.104;2023-02-19T01:16:31;100959.56;;;3.92;100.00
3122;BME280;1571;52.524;14.104;2023-02-19T01:18:59;100960.69;;;3.85;100.00
3122;BME280;1571;52.524;14.104;2023-02-19T01:21:29;100941.88;;;3.97;100.00
3122;BME280;1571;52.524;14.104;2023-02-19T01:23:59;100938.78;;;4.13;100.00
3122;BME280;1571;52.524;14.104;2023-02-19T01:26:29;100936.94;;;3.88;100.00
3122;BME280;1571;52.524;14.104;2023-02-19T01:28:58;100933.19;;;3.95;100.00
3122;BME280;1571;52.524;14.104;2023-02-19T01:31:27;100930.56;;;3.95;100.00
3122;BME280;1571;52.524;14.104;2023-02-19T01:33:58;100922.50;;;4.02;100.00
3122;BME280;1571;52.524;14.104;2023-02-19T01:36:28;100927.75;;;4.02;100.00
3122;BME280;1571;52.524;14.104;2023-02-19T01:39:00;100912.34;;;4.17;100.00
3122;BME280;1571;52.524;14.104;2023-02-19T01:41:31;100907.53;;;3.77;100.00
3122;BME280;1571;52.524;14.104;2023-02-19T01:44:01;100899.66;;;3.77;100.00
3122;BME280;1571;52.524;14.104;2023-02-19T01:46:31;100892.13;;;3.93;100.00
3122;BME280;1571;52.524;14.104;2023-02-19T01:49:03;100893.69;;;3.72;100.00
3122;BME280;1571;52.524;14.104;2023-02-19T01:51:35;100885.06;;;3.67;100.00
3122;BME280;1571;52.524;14.104;2023-02-19T01:54:07;100890.31;;;3.67;100.00
3122;BME280;1571;52.524;14.104;2023-02-19T01:56:38;100885.88;;;3.69;100.00
3122;BME280;1571;52.524;14.104;2023-02-19T01:59:08;100881.41;;;3.72;100.00
3122;BME280;1571;52.524;14.104;2023-02-19T02:01:38;100890.06;;;3.76;100.00
3122;BME280;1571;52.524;14.104;2023-02-19T02:04:08;100881.22;;;3.79;100.00
3122;BME280;1571;52.524;14.104;2023-02-19T02:06:42;100852.53;;;3.72;100.00
3122;BME280;1571;52.524;14.104;2023-02-19T02:09:13;100855.19;;;3.71;100.00
3122;BME280;1571;52.524;14.104;2023-02-19T02:12:10;100853.03;;;3.84;100.00
3122;BME280;1571;52.524;14.104;2023-02-19T02:14:42;100854.06;;;3.78;100.00
3122;BME280;1571;52.524;14.104;2023-02-19T02:17:17;100856.81;;;3.75;100.00
3122;BME280;1571;52.524;14.104;2023-02-19T02:20:19;100860.44;;;3.71;100.00
3122;BME280;1571;52.524;14.104;2023-02-19T02:23:04;100855.81;;;3.79;100.00
3122;BME280;1571;52.524;14.104;2023-02-19T02:25:51;100840.28;;;3.98;100.00
3122;BME280;1571;52.524;14.104;2023-02-19T02:28:36;100823.38;;;3.80;100.00
3122;BME280;1571;52.524;14.104;2023-02-19T02:31:12;100817.03;;;3.87;100.00
3122;BME280;1571;52.524;14.104;2023-02-19T02:33:46;100823.28;;;3.83;100.00
3122;BME280;1571;52.524;14.104;2023-02-19T02:36:18;100816.41;;;3.79;100.00
3122;BME280;1571;52.524;14.104;2023-02-19T02:38:48;100818.44;;;3.71;100.00
3122;BME280;1571;52.524;14.104;2023-02-19T02:41:20;100821.22;;;3.66;100.00
3122;BME280;1571;52.524;14.104;2023-02-19T02:43:48;100818.53;;;3.68;100.00
3122;BME280;1571;52.524;14.104;2023-02-19T02:46:22;100819.03;;;3.52;100.00
3122;BME280;1571;52.524;14.104;2023-02-19T02:48:54;100827.72;;;3.54;100.00
3122;BME280;1571;52.524;14.104;2023-02-19T02:51:26;100829.22;;;3.62;100.00
3122;BME280;1571;52.524;14.104;2023-02-19T02:54:05;100825.78;;;3.60;100.00
3122;BME280;1571;52.524;14.104;2023-02-19T02:56:54;100832.84;;;3.58;100.00
3122;BME280;1571;52.524;14.104;2023-02-19T02:59:28;100832.84;;;3.58;100.00
3122;BME280;1571;52.524;14.104;2023-02-19T03:02:01;100834.06;;;3.47;100.00
3122;BME280;1571;52.524;14.104;2023-02-19T03:04:43;100835.69;;;3.51;100.00
3122;BME280;1571;52.524;14.104;2023-02-19T03:07:33;100832.34;;;3.46;100.00
3122;BME280;1571;52.524;14.104;2023-02-19T03:10:04;100835.47;;;3.58;100.00
3122;BME280;1571;52.524;14.104;2023-02-19T03:12:35;100829.41;;;3.55;100.00
3122;BME280;1571;52.524;14.104;2023-02-19T03:15:26;100833.88;;;3.53;100.00
3122;BME280;1571;52.524;14.104;2023-02-19T03:18:15;100843.56;;;3.51;100.00
3122;BME280;1571;52.524;14.104;2023-02-19T03:21:04;100838.59;;;3.42;100.00
3122;BME280;1571;52.524;14.104;2023-02-19T03:23:37;100843.66;;;3.48;100.00
3122;BME280;1571;52.524;14.104;2023-02-19T03:26:24;100852.34;;;3.50;100.00
3122;BME280;1571;52.524;14.104;2023-02-19T03:28:55;100850.41;;;3.55;100.00
3122;BME280;1571;52.524;14.104;2023-02-19T03:31:45;100854.78;;;3.57;100.00
3122;BME280;1571;52.524;14.104;2023-02-19T03:34:21;100857.59;;;3.50;100.00
3122;BME280;1571;52.524;14.104;2023-02-19T03:36:57;100861.31;;;3.43;100.00
3122;BME280;1571;52.524;14.104;2023-02-19T03:39:28;100855.16;;;3.44;100.00
3122;BME280;1571;52.524;14.104;2023-02-19T03:42:00;100869.69;;;3.26;100.00
3122;BME280;1571;52.524;14.104;2023-02-19T03:44:35;100882.94;;;3.22;100.00
3122;BME280;1571;52.524;14.104;2023-02-19T03:47:12;100885.84;;;3.12;100.00
3122;BME280;1571;52.524;14.104;2023-02-19T03:49:47;100883.16;;;3.16;100.00
3122;BME280;1571;52.524;14.104;2023-02-19T03:52:23;100885.22;;;3.04;100.00
3122;BME280;1571;52.524;14.104;2023-02-19T03:54:59;100876.72;;;2.96;100.00
3122;BME280;1571;52.524;14.104;2023-02-19T03:57:36;100874.88;;;3.00;100.00
3122;BME280;1571;52.524;14.104;2023-02-19T04:00:10;100872.56;;;2.89;100.00
3122;BME280;1571;52.524;14.104;2023-02-19T04:02:45;100865.28;;;2.67;100.00
3122;BME280;1571;52.524;14.104;2023-02-19T04:05:19;100867.59;;;2.78;100.00
3122;BME280;1571;52.524;14.104;2023-02-19T04:07:49;100872.59;;;2.87;100.00
3122;BME280;1571;52.524;14.104;2023-02-19T04:10:26;100863.16;;;2.82;100.00
3122;BME280;1571;52.524;14.104;2023-02-19T04:12:59;100860.66;;;2.77;100.00
3122;BME280;1571;52.524;14.104;2023-02-19T04:15:31;100864.25;;;2.73;100.00
3122;BME280;1571;52.524;14.104;2023-02-19T04:18:03;100876.97;;;2.87;100.00
3122;BME280;1571;52.524;14.104;2023-02-19T04:20:37;100866.66;;;2.81;100.00
3122;BME280;1571;52.524;14.104;2023-02-19T04:23:06;100866.81;;;2.75;100.00
3122;BME280;1571;52.524;14.104;2023-02-19T04:25:37;100871.13;;;2.77;100.00
3122;BME280;1571;52.524;14.104;2023-02-19T04:28:07;100870.34;;;2.74;100.00
3122;BME280;1571;52.524;14.104;2023-02-19T04:30:35;100870.34;;;2.74;100.00
3122;BME280;1571;52.524;14.104;2023-02-19T04:33:03;100878.38;;;2.67;100.00
3122;BME280;1571;52.524;14.104;2023-02-19T04:35:31;100874.81;;;2.70;100.00
3122;BME280;1571;52.524;14.104;2023-02-19T04:38:01;100875.06;;;2.61;100.00
3122;BME280;1571;52.524;14.104;2023-02-19T04:40:29;100881.09;;;2.64;100.00
3122;BME280;1571;52.524;14.104;2023-02-19T04:42:57;100897.91;;;2.57;100.00
3122;BME280;1571;52.524;14.104;2023-02-19T04:45:26;100891.75;;;2.58;100.00
3122;BME280;1571;52.524;14.104;2023-02-19T04:47:56;100893.63;;;2.53;100.00
3122;BME280;1571;52.524;14.104;2023-02-19T04:50:24;100879.56;;;2.23;100.00
3122;BME280;1571;52.524;14.104;2023-02-19T04:52:52;100888.13;;;2.29;100.00
3122;BME280;1571;52.524;14.104;2023-02-19T04:55:22;100888.69;;;2.41;100.00
3122;BME280;1571;52.524;14.104;2023-02-19T04:57:50;100893.16;;;2.39;100.00
3122;BME280;1571;52.524;14.104;2023-02-19T05:00:19;100897.88;;;2.24;100.00
3122;BME280;1571;52.524;14.104;2023-02-19T05:02:47;100890.09;;;2.21;100.00
3122;BME280;1571;52.524;14.104;2023-02-19T05:05:15;100890.84;;;2.26;100.00
3122;BME280;1571;52.524;14.104;2023-02-19T05:07:44;100888.88;;;2.35;100.00
3122;BME280;1571;52.524;14.104;2023-02-19T05:10:12;100890.94;;;2.22;100.00
3122;BME280;1571;52.524;14.104;2023-02-19T05:12:41;100890.13;;;2.20;100.00
3122;BME280;1571;52.524;14.104;2023-02-19T05:15:09;100901.31;;;2.26;100.00
3122;BME280;1571;52.524;14.104;2023-02-19T05:17:38;100892.72;;;2.21;100.00
3122;BME280;1571;52.524;14.104;2023-02-19T05:20:07;100890.22;;;2.17;100.00
3122;BME280;1571;52.524;14.104;2023-02-19T05:22:35;100890.91;;;2.23;100.00
3122;BME280;1571;52.524;14.104;2023-02-19T05:25:04;100887.16;;;1.99;100.00
3122;BME280;1571;52.524;14.104;2023-02-19T05:27:32;100890.13;;;2.20;100.00
3122;BME280;1571;52.524;14.104;2023-02-19T05:30:02;100891.22;;;2.11;100.00
3122;BME280;1571;52.524;14.104;2023-02-19T05:32:33;100887.75;;;2.11;100.00
3122;BME280;1571;52.524;14.104;2023-02-19T05:35:02;100893.78;;;2.14;100.00
3122;BME280;1571;52.524;14.104;2023-02-19T05:37:30;100880.09;;;2.03;100.00
3122;BME280;1571;52.524;14.104;2023-02-19T05:39:58;100877.53;;;2.00;100.00
3122;BME280;1571;52.524;14.104;2023-02-19T05:42:27;100886.28;;;1.99;100.00
3122;BME280;1571;52.524;14.104;2023-02-19T05:44:55;100895.81;;;2.03;100.00
3122;BME280;1571;52.524;14.104;2023-02-19T05:47:24;100891.31;;;2.08;100.00
3122;BME280;1571;52.524;14.104;2023-02-19T05:49:52;100890.59;;;2.01;100.00
3122;BME280;1571;52.524;14.104;2023-02-19T05:52:20;100888.19;;;1.92;100.00
3122;BME280;1571;52.524;14.104;2023-02-19T05:54:49;100883.69;;;1.99;100.00
3122;BME280;1571;52.524;14.104;2023-02-19T05:57:17;100883.84;;;1.91;100.00
3122;BME280;1571;52.524;14.104;2023-02-19T05:59:46;100891.69;;;1.93;100.00
3122;BME280;1571;52.524;14.104;2023-02-19T06:02:14;100894.16;;;1.99;100.00
3122;BME280;1571;52.524;14.104;2023-02-19T06:04:44;100889.69;;;2.02;100.00
3122;BME280;1571;52.524;14.104;2023-02-19T06:07:12;100888.25;;;1.89;100.00
3122;BME280;1571;52.524;14.104;2023-02-19T06:09:40;100882.38;;;2.15;100.00
3122;BME280;1571;52.524;14.104;2023-02-19T06:12:08;100883.47;;;2.06;100.00
3122;BME280;1571;52.524;14.104;2023-02-19T06:14:36;100881.44;;;2.18;100.00
3122;BME280;1571;52.524;14.104;2023-02-19T06:17:04;100878.00;;;2.16;100.00
3122;BME280;1571;52.524;14.104;2023-02-19T06:19:32;100881.53;;;2.15;100.00
3122;BME280;1571;52.524;14.104;2023-02-19T06:22:02;100883.94;;;2.22;100.00
3122;BME280;1571;52.524;14.104;2023-02-19T06:24:30;100869.19;;;2.18;100.00
3122;BME280;1571;52.524;14.104;2023-02-19T06:26:59;100876.88;;;2.26;100.00
3122;BME280;1571;52.524;14.104;2023-02-19T06:29:27;100880.91;;;2.05;100.00
3122;BME280;1571;52.524;14.104;2023-02-19T06:31:55;100882.75;;;2.00;100.00
3122;BME280;1571;52.524;14.104;2023-02-19T06:34:23;100882.72;;;2.03;100.00
3122;BME280;1571;52.524;14.104;2023-02-19T06:36:52;100898.41;;;2.03;100.00
3122;BME280;1571;52.524;14.104;2023-02-19T06:39:21;100902.88;;;1.98;100.00
3122;BME280;1571;52.524;14.104;2023-02-19T06:41:49;100913.56;;;1.90;100.00
3122;BME280;1571;52.524;14.104;2023-02-19T06:44:18;100898.69;;;1.92;100.00
3122;BME280;1571;52.524;14.104;2023-02-19T06:46:46;100914.19;;;2.00;100.00
3122;BME280;1571;52.524;14.104;2023-02-19T06:49:14;100914.19;;;2.00;100.00
3122;BME280;1571;52.524;14.104;2023-02-19T06:51:43;100922.72;;;2.08;100.00
3122;BME280;1571;52.524;14.104;2023-02-19T06:54:11;100920.13;;;2.08;100.00
3122;BME280;1571;52.524;14.104;2023-02-19T06:56:40;100914.53;;;2.22;100.00
3122;BME280;1571;52.524;14.104;2023-02-19T06:59:14;100918.13;;;2.18;100.00
3122;BME280;1571;52.524;14.104;2023-02-19T07:01:44;100924.44;;;2.09;100.00
3122;BME280;1571;52.524;14.104;2023-02-19T07:04:12;100927.81;;;2.14;100.00
3122;BME280;1571;52.524;14.104;2023-02-19T07:06:41;100926.09;;;2.13;100.00
3122;BME280;1571;52.524;14.104;2023-02-19T07:09:10;100930.38;;;2.16;100.00
3122;BME280;1571;52.524;14.104;2023-02-19T07:11:38;100931.47;;;2.07;100.00
3122;BME280;1571;52.524;14.104;2023-02-19T07:14:13;100948.91;;;2.08;100.00
3122;BME280;1571;52.524;14.104;2023-02-19T07:16:43;100948.47;;;2.26;100.00
3122;BME280;1571;52.524;14.104;2023-02-19T07:19:14;100949.09;;;2.36;100.00
3122;BME280;1571;52.524;14.104;2023-02-19T07:21:42;100950.41;;;2.18;100.00
3122;BME280;1571;52.524;14.104;2023-02-19T07:24:10;100957.38;;;2.19;100.00
3122;BME280;1571;52.524;14.104;2023-02-19T07:26:38;100957.84;;;2.37;100.00
3122;BME280;1571;52.524;14.104;2023-02-19T07:29:09;100966.81;;;2.26;100.00
3122;BME280;1571;52.524;14.104;2023-02-19T07:31:37;100958.22;;;2.20;100.00
3122;BME280;1571;52.524;14.104;2023-02-19T07:34:05;100977.28;;;2.26;100.00
3122;BME280;1571;52.524;14.104;2023-02-19T07:36:33;100970.34;;;2.25;100.00
3122;BME280;1571;52.524;14.104;2023-02-19T07:39:02;100973.50;;;2.38;100.00
3122;BME280;1571;52.524;14.104;2023-02-19T07:41:31;100980.84;;;2.58;100.00
3122;BME280;1571;52.524;14.104;2023-02-19T07:43:59;100991.19;;;2.64;100.00
3122;BME280;1571;52.524;14.104;2023-02-19T07:46:29;100989.31;;;2.69;100.00
3122;BME280;1571;52.524;14.104;2023-02-19T07:48:58;100987.50;;;2.71;100.00
3122;BME280;1571;52.524;14.104;2023-02-19T07:51:26;100994.00;;;2.91;100.00
3122;BME280;1571;52.524;14.104;2023-02-19T07:53:55;100995.47;;;3.01;100.00
3122;BME280;1571;52.524;14.104;2023-02-19T07:56:23;100988.50;;;3.00;100.00
3122;BME280;1571;52.524;14.104;2023-02-19T07:58:51;100994.50;;;3.04;100.00
3122;BME280;1571;52.524;14.104;2023-02-19T08:01:21;100989.09;;;3.10;100.00
3122;BME280;1571;52.524;14.104;2023-02-19T08:04:13;100993.00;;;3.26;100.00
3122;BME280;1571;52.524;14.104;2023-02-19T08:06:40;100991.41;;;3.22;100.00
3122;BME280;1571;52.524;14.104;2023-02-19T08:09:09;100994.63;;;3.32;100.00
3122;BME280;1571;52.524;14.104;2023-02-19T08:11:37;100992.03;;;3.30;100.00
3122;BME280;1571;52.524;14.104;2023-02-19T08:14:24;101003.47;;;3.28;100.00
3122;BME280;1571;52.524;14.104;2023-02-19T08:16:52;100999.22;;;3.24;100.00
3122;BME280;1571;52.524;14.104;2023-02-19T08:19:22;101008.81;;;3.25;100.00
3122;BME280;1571;52.524;14.104;2023-02-19T08:21:50;101005.63;;;3.13;100.00
3122;BME280;1571;52.524;14.104;2023-02-19T08:24:19;101023.94;;;3.15;100.00
3122;BME280;1571;52.524;14.104;2023-02-19T08:26:47;101022.13;;;3.17;100.00
3122;BME280;1571;52.524;14.104;2023-02-19T08:29:16;101041.06;;;3.28;100.00
3122;BME280;1571;52.524;14.104;2023-02-19T08:31:44;101039.00;;;3.40;100.00
3122;BME280;1571;52.524;14.104;2023-02-19T08:34:12;101051.53;;;3.30;100.00
3122;BME280;1571;52.524;14.104;2023-02-19T08:36:42;101050.63;;;3.31;100.00
3122;BME280;1571;52.524;14.104;2023-02-19T08:39:10;101050.59;;;3.32;100.00
3122;BME280;1571;52.524;14.104;2023-02-19T08:41:38;101064.97;;;3.50;100.00
3122;BME280;1571;52.524;14.104;2023-02-19T08:44:06;101070.25;;;3.49;100.00
3122;BME280;1571;52.524;14.104;2023-02-19T08:46:34;101065.47;;;3.32;100.00
3122;BME280;1571;52.524;14.104;2023-02-19T08:49:03;101080.06;;;3.42;100.00
3122;BME280;1571;52.524;14.104;2023-02-19T08:51:31;101083.44;;;3.47;100.00
3122;BME280;1571;52.524;14.104;2023-02-19T08:54:02;101096.25;;;3.27;100.00
3122;BME280;1571;52.524;14.104;2023-02-19T08:56:31;101096.00;;;3.36;100.00
3122;BME280;1571;52.524;14.104;2023-02-19T08:58:59;101095.81;;;3.42;100.00
3122;BME280;1571;52.524;14.104;2023-02-19T09:01:27;101100.16;;;3.43;100.00
3122;BME280;1571;52.524;14.104;2023-02-19T09:03:55;101111.34;;;3.51;100.00
3122;BME280;1571;52.524;14.104;2023-02-19T09:06:23;101093.78;;;3.53;100.00
3122;BME280;1571;52.524;14.104;2023-02-19T09:08:52;101116.63;;;3.81;100.00
3122;BME280;1571;52.524;14.104;2023-02-19T09:11:21;101114.81;;;3.83;100.00
3122;BME280;1571;52.524;14.104;2023-02-19T09:13:49;101098.69;;;3.64;100.00
3122;BME280;1571;52.524;14.104;2023-02-19T09:16:17;101112.13;;;3.85;100.00
3122;BME280;1571;52.524;14.104;2023-02-19T09:18:46;101108.59;;;3.87;100.00
3122;BME280;1571;52.524;14.104;2023-02-19T09:21:14;101119.03;;;3.89;100.00
3122;BME280;1571;52.524;14.104;2023-02-19T09:23:42;101120.25;;;3.77;100.00
3122;BME280;1571;52.524;14.104;2023-02-19T09:26:10;101115.09;;;4.04;100.00
3122;BME280;1571;52.524;14.104;2023-02-19T09:28:41;101118.56;;;4.06;100.00
3122;BME280;1571;52.524;14.104;2023-02-19T09:31:11;101119.91;;;4.19;100.00
3122;BME280;1571;52.524;14.104;2023-02-19T09:33:44;101121.25;;;4.32;100.00
3122;BME280;1571;52.524;14.104;2023-02-19T09:36:14;101126.69;;;4.54;100.00
3122;BME280;1571;52.524;14.104;2023-02-19T09:38:43;101125.59;;;4.33;100.00
3122;BME280;1571;52.524;14.104;2023-02-19T09:41:19;101127.06;;;4.44;100.00
3122;BME280;1571;52.524;14.104;2023-02-19T09:43:50;101124.13;;;4.53;99.53
3122;BME280;1571;52.524;14.104;2023-02-19T09:46:25;101127.66;;;4.24;99.27
3122;BME280;1571;52.524;14.104;2023-02-19T09:48:58;101128.50;;;4.24;98.44
3122;BME280;1571;52.524;14.104;2023-02-19T09:51:30;101123.16;;;4.27;98.08
3122;BME280;1571;52.524;14.104;2023-02-19T09:54:00;101133.84;;;4.51;97.13
3122;BME280;1571;52.524;14.104;2023-02-19T09:56:29;101144.44;;;4.18;98.35
3122;BME280;1571;52.524;14.104;2023-02-19T09:58:59;101142.47;;;4.83;97.46
3122;BME280;1571;52.524;14.104;2023-02-19T10:01:31;101142.41;;;4.57;97.19
3122;BME280;1571;52.524;14.104;2023-02-19T10:04:04;101150.59;;;4.47;96.44
3122;BME280;1571;52.524;14.104;2023-02-19T10:06:32;101153.47;;;4.67;96.61
3122;BME280;1571;52.524;14.104;2023-02-19T10:09:20;101144.66;;;4.68;96.02
3122;BME280;1571;52.524;14.104;2023-02-19T10:11:48;101157.34;;;4.84;95.42
3122;BME280;1571;52.524;14.104;2023-02-19T10:14:22;101156.50;;;4.55;94.58
3122;BME280;1571;52.524;14.104;2023-02-19T10:16:57;101155.69;;;4.53;93.46
3122;BME280;1571;52.524;14.104;2023-02-19T10:19:27;101164.28;;;4.58;92.41
3122;BME280;1571;52.524;14.104;2023-02-19T10:21:55;101179.25;;;4.56;93.32
3122;BME280;1571;52.524;14.104;2023-02-19T10:24:26;101169.97;;;4.72;91.79
3122;BME280;1571;52.524;14.104;2023-02-19T10:26:55;101170.19;;;4.93;91.12
3122;BME280;1571;52.524;14.104;2023-02-19T10:29:25;101185.03;;;4.39;90.74
3122;BME280;1571;52.524;14.104;2023-02-19T10:32:14;101187.25;;;4.81;90.94
3122;BME280;1571;52.524;14.104;2023-02-19T10:34:44;101188.00;;;4.85;89.72
3122;BME280;1571;52.524;14.104;2023-02-19T10:37:15;101194.75;;;4.93;89.59
3122;BME280;1571;52.524;14.104;2023-02-19T10:39:45;101201.81;;;4.63;89.56
3122;BME280;1571;52.524;14.104;2023-02-19T10:42:15;101209.34;;;4.75;88.90
3122;BME280;1571;52.524;14.104;2023-02-19T10:44:50;101219.00;;;5.03;88.70
3122;BME280;1571;52.524;14.104;2023-02-19T10:47:22;101221.22;;;5.15;88.39
3122;BME280;1571;52.524;14.104;2023-02-19T10:49:52;101219.78;;;5.07;87.09
3122;BME280;1571;52.524;14.104;2023-02-19T10:52:24;101229.41;;;5.06;87.65
3122;BME280;1571;52.524;14.104;2023-02-19T10:54:55;101225.41;;;5.22;86.31
3122;BME280;1571;52.524;14.104;2023-02-19T10:57:27;101242.72;;;5.01;86.92
3122;BME280;1571;52.524;14.104;2023-02-19T11:00:02;101238.72;;;5.18;86.35
3122;BME280;1571;52.524;14.104;2023-02-19T11:02:44;101247.66;;;5.12;85.78
3122;BME280;1571;52.524;14.104;2023-02-19T11:05:18;101263.47;;;5.39;85.13
3122;BME280;1571;52.524;14.104;2023-02-19T11:07:48;101259.34;;;5.32;84.20
3122;BME280;1571;52.524;14.104;2023-02-19T11:10:24;101255.94;;;5.55;84.07
3122;BME280;1571;52.524;14.104;2023-02-19T11:12:54;101261.06;;;5.59;82.89
3122;BME280;1571;52.524;14.104;2023-02-19T11:15:27;101260.53;;;5.21;82.32
3122;BME280;1571;52.524;14.104;2023-02-19T11:17:59;101270.00;;;4.99;81.65
3122;BME280;1571;52.524;14.104;2023-02-19T11:20:29;101273.25;;;5.07;81.12
3122;BME280;1571;52.524;14.104;2023-02-19T11:23:00;101276.88;;;5.31;81.08
3122;BME280;1571;52.524;14.104;2023-02-19T11:25:30;101279.25;;;5.12;80.90
3122;BME280;1571;52.524;14.104;2023-02-19T11:28:02;101277.63;;;5.36;81.38
3122;BME280;1571;52.524;14.104;2023-02-19T11:30:38;101283.63;;;5.40;81.38
3122;BME280;1571;52.524;14.104;2023-02-19T11:33:19;101286.03;;;5.74;81.73
3122;BME280;1571;52.524;14.104;2023-02-19T11:35:49;101283.25;;;5.79;79.41
3122;BME280;1571;52.524;14.104;2023-02-19T11:38:19;101284.75;;;5.86;80.05
3122;BME280;1571;52.524;14.104;2023-02-19T11:40:51;101296.72;;;5.70;80.09
3122;BME280;1571;52.524;14.104;2023-02-19T11:43:36;101312.81;;;5.34;80.23
3122;BME280;1571;52.524;14.104;2023-02-19T11:46:16;101319.47;;;5.44;80.28
3122;BME280;1571;52.524;14.104;2023-02-19T11:48:51;101322.75;;;5.52;81.06
3122;BME280;1571;52.524;14.104;2023-02-19T11:51:50;101325.81;;;5.65;82.02
3122;BME280;1571;52.524;14.104;2023-02-19T11:54:38;101320.72;;;5.60;80.27
3122;BME280;1571;52.524;14.104;2023-02-19T11:57:27;101322.69;;;5.26;78.91
3122;BME280;1571;52.524;14.104;2023-02-19T12:00:11;101319.97;;;5.29;78.97
3122;BME280;1571;52.524;14.104;2023-02-19T12:02:57;101328.69;;;5.31;78.39
3122;BME280;1571;52.524;14.104;2023-02-19T12:05:45;101322.00;;;5.20;78.18
3122;BME280;1571;52.524;14.104;2023-02-19T12:14:44;101327.00;;;5.83;77.39
3122;BME280;1571;52.524;14.104;2023-02-19T12:17:31;101332.63;;;5.99;77.63
3122;BME280;1571;52.524;14.104;2023-02-19T12:20:11;101333.59;;;5.96;74.85
3122;BME280;1571;52.524;14.104;2023-02-19T12:22:50;101330.19;;;5.66;74.09
3122;BME280;1571;52.524;14.104;2023-02-19T12:25:32;101344.66;;;5.53;74.61
3122;BME280;1571;52.524;14.104;2023-02-19T12:28:32;101343.97;;;5.48;76.32
3122;BME280;1571;52.524;14.104;2023-02-19T12:31:20;101342.66;;;5.33;77.55
3122;BME280;1571;52.524;14.104;2023-02-19T12:34:28;101345.81;;;5.44;76.31
3122;BME280;1571;52.524;14.104;2023-02-19T12:37:15;101341.03;;;5.57;75.65
3122;BME280;1571;52.524;14.104;2023-02-19T12:39:50;101342.28;;;5.45;74.38
3122;BME280;1571;52.524;14.104;2023-02-19T12:42:34;101344.81;;;5.48;73.99
3122;BME280;1571;52.524;14.104;2023-02-19T12:45:15;101347.34;;;5.51;72.92
3122;BME280;1571;52.524;14.104;2023-02-19T12:47:56;101344.97;;;5.43;72.22
3122;BME280;1571;52.524;14.104;2023-02-19T12:50:27;101348.50;;;5.42;72.59
3122;BME280;1571;52.524;14.104;2023-02-19T12:53:00;101359.50;;;5.55;72.52
3122;BME280;1571;52.524;14.104;2023-02-19T12:55:32;101372.97;;;5.46;72.32
3122;BME280;1571;52.524;14.104;2023-02-19T12:58:03;101371.34;;;5.42;72.56
3122;BME280;1571;52.524;14.104;2023-02-19T13:00:34;101376.38;;;5.50;72.75
3122;BME280;1571;52.524;14.104;2023-02-19T13:03:11;101385.28;;;5.46;73.79
3122;BME280;1571;52.524;14.104;2023-02-19T13:05:43;101385.72;;;5.32;73.30
3122;BME280;1571;52.524;14.104;2023-02-19T13:08:20;101389.44;;;5.25;73.10
3122;BME280;1571;52.524;14.104;2023-02-19T13:10:54;101396.09;;;5.36;73.58
3122;BME280;1571;52.524;14.104;2023-02-19T13:13:26;101395.72;;;5.49;72.40
3122;BME280;1571;52.524;14.104;2023-02-19T13:15:59;101403.19;;;5.62;71.89
3122;BME280;1571;52.524;14.104;2023-02-19T13:18:33;101402.56;;;5.54;70.92
3122;BME280;1571;52.524;14.104;2023-02-19T13:21:02;101398.59;;;5.41;70.30
3122;BME280;1571;52.524;14.104;2023-02-19T13:23:35;101403.75;;;5.44;70.84
3122;BME280;1571;52.524;14.104;2023-02-19T13:26:37;101413.59;;;5.37;70.66
3122;BME280;1571;52.524;14.104;2023-02-19T13:29:19;101421.75;;;5.30;70.95
3122;BME280;1571;52.524;14.104;2023-02-19T13:32:20;101424.00;;;5.12;71.88
3122;BME280;1571;52.524;14.104;2023-02-19T13:35:02;101425.81;;;5.10;72.50
3122;BME280;1571;52.524;14.104;2023-02-19T13:37:37;101432.25;;;5.00;72.72